createdAt,value
2023-04-22T00:01:33.809Z,9.73
2023-04-22T00:04:02.139Z,10.03
2023-04-22T00:06:29.794Z,12.93
2023-04-22T00:08:57.230Z,10.77
2023-04-22T00:11:24.638Z,12.80
2023-04-22T00:13:52.162Z,12.47
2023-04-22T00:16:19.841Z,10.37
2023-04-22T00:18:47.433Z,11.50
2023-04-22T00:21:17.240Z,10.23
2023-04-22T00:23:45.701Z,11.03
2023-04-22T00:26:13.324Z,11.47
2023-04-22T00:28:41.726Z,10.63
2023-04-22T00:31:09.161Z,11.10
2023-04-22T00:33:37.257Z,11.20
2023-04-22T00:36:04.874Z,12.07
2023-04-22T00:38:32.209Z,9.93
2023-04-22T00:40:59.993Z,11.47
2023-04-22T00:43:27.427Z,9.67
2023-04-22T00:45:54.996Z,7.67
2023-04-22T00:48:22.628Z,9.17
2023-04-22T00:50:50.076Z,11.37
2023-04-22T00:53:18.466Z,9.60
2023-04-22T00:55:45.923Z,10.17
2023-04-22T00:58:14.518Z,11.30
2023-04-22T01:00:43.215Z,9.17
2023-04-22T01:03:11.095Z,10.00
2023-04-22T01:05:39.173Z,9.10
2023-04-22T01:08:06.499Z,13.33
2023-04-22T01:10:34.960Z,10.23
2023-04-22T01:13:02.468Z,14.70
2023-04-22T01:15:29.937Z,9.83
2023-04-22T01:17:57.483Z,12.13
2023-04-22T01:20:25.131Z,11.40
2023-04-22T01:22:55.454Z,11.03
2023-04-22T01:25:27.215Z,11.50
2023-04-22T01:27:55.016Z,11.40
2023-04-22T01:30:23.811Z,9.83
2023-04-22T01:32:52.444Z,10.80
2023-04-22T01:35:21.609Z,9.77
2023-04-22T01:37:51.220Z,10.93
2023-04-22T01:40:22.651Z,9.77
2023-04-22T01:42:50.545Z,8.10
2023-04-22T01:45:18.097Z,9.50
2023-04-22T01:47:45.689Z,9.50
2023-04-22T01:50:13.957Z,8.47
2023-04-22T01:52:42.263Z,8.93
2023-04-22T01:55:10.002Z,11.10
2023-04-22T01:57:40.377Z,8.53
2023-04-22T02:00:08.563Z,9.10
2023-04-22T02:02:45.952Z,8.63
2023-04-22T02:05:13.814Z,7.93
2023-04-22T02:07:41.180Z,8.70
2023-04-22T02:10:09.749Z,7.97
2023-04-22T02:12:37.128Z,8.33
2023-04-22T02:15:05.015Z,8.30
2023-04-22T02:17:34.290Z,6.63
2023-04-22T02:20:02.535Z,9.97
2023-04-22T02:22:33.329Z,10.10
2023-04-22T02:25:01.433Z,9.53
2023-04-22T02:27:30.098Z,7.30
2023-04-22T02:29:58.241Z,7.33
2023-04-22T02:32:25.944Z,8.00
2023-04-22T02:34:53.762Z,7.60
2023-04-22T02:37:22.931Z,9.33
2023-04-22T02:39:51.003Z,7.10
2023-04-22T02:42:19.343Z,8.77
2023-04-22T02:44:46.726Z,8.67
2023-04-22T02:47:14.257Z,11.30
2023-04-22T02:49:41.873Z,12.27
2023-04-22T02:52:10.455Z,10.40
2023-04-22T02:54:40.059Z,11.10
2023-04-22T02:57:07.728Z,10.70
2023-04-22T02:59:36.353Z,9.47
2023-04-22T03:02:06.653Z,11.50
2023-04-22T03:04:54.660Z,11.60
2023-04-22T03:07:22.230Z,9.03
2023-04-22T03:09:51.135Z,9.60
2023-04-22T03:12:19.212Z,8.20
2023-04-22T03:14:47.135Z,10.10
2023-04-22T03:17:14.607Z,7.90
2023-04-22T03:19:42.802Z,7.50
2023-04-22T03:22:10.740Z,9.27
2023-04-22T03:24:38.846Z,7.73
2023-04-22T03:27:07.861Z,10.23
2023-04-22T03:29:35.278Z,7.83
2023-04-22T03:32:02.654Z,8.93
2023-04-22T03:34:30.446Z,9.33
2023-04-22T03:36:59.579Z,8.70
2023-04-22T03:39:26.934Z,8.83
2023-04-22T03:41:56.898Z,8.13
2023-04-22T03:44:24.115Z,8.97
2023-04-22T03:46:51.673Z,9.57
2023-04-22T03:49:22.948Z,7.83
2023-04-22T03:51:50.702Z,8.17
2023-04-22T03:54:21.587Z,7.70
2023-04-22T03:56:51.936Z,8.40
2023-04-22T03:59:21.275Z,8.10
2023-04-22T04:01:51.572Z,10.20
2023-04-22T04:04:23.284Z,7.33
2023-04-22T04:06:55.641Z,8.37
2023-04-22T04:09:22.873Z,8.30
2023-04-22T04:11:50.177Z,8.03
2023-04-22T04:14:20.165Z,8.07
2023-04-22T04:16:49.067Z,9.17
2023-04-22T04:19:24.891Z,8.03
2023-04-22T04:21:54.388Z,8.10
2023-04-22T04:24:22.821Z,8.17
2023-04-22T04:26:53.841Z,9.20
2023-04-22T04:29:28.045Z,10.40
2023-04-22T04:32:04.772Z,8.70
2023-04-22T04:34:32.300Z,10.83
2023-04-22T04:36:59.508Z,7.43
2023-04-22T04:39:36.664Z,7.83
2023-04-22T04:42:06.540Z,11.43
2023-04-22T04:44:41.271Z,6.30
2023-04-22T04:47:12.737Z,7.17
2023-04-22T04:49:40.838Z,7.20
2023-04-22T04:52:12.619Z,9.20
2023-04-22T04:54:40.309Z,6.50
2023-04-22T04:57:07.486Z,8.47
2023-04-22T04:59:34.770Z,7.47
2023-04-22T05:02:02.370Z,7.83
2023-04-22T05:04:31.682Z,7.33
2023-04-22T05:06:58.972Z,7.17
2023-04-22T05:09:26.949Z,8.10
2023-04-22T05:11:54.510Z,8.20
2023-04-22T05:14:22.777Z,8.80
2023-04-22T05:16:50.550Z,7.43
2023-04-22T05:19:17.859Z,8.20
2023-04-22T05:21:46.977Z,6.63
2023-04-22T05:24:15.295Z,7.57
2023-04-22T05:26:42.556Z,7.93
2023-04-22T05:29:15.833Z,8.77
2023-04-22T05:31:43.324Z,6.47
2023-04-22T05:34:12.366Z,6.90
2023-04-22T05:36:41.290Z,7.37
2023-04-22T05:39:08.623Z,6.13
2023-04-22T05:41:37.130Z,6.77
2023-04-22T05:44:08.631Z,9.83
2023-04-22T05:46:36.135Z,7.10
2023-04-22T05:49:03.930Z,9.73
2023-04-22T05:51:50.471Z,6.10
2023-04-22T05:54:21.044Z,6.27
2023-04-22T05:56:48.570Z,6.50
2023-04-22T05:59:17.440Z,7.37
2023-04-22T06:01:45.819Z,7.20
2023-04-22T06:04:19.842Z,10.10
2023-04-22T06:06:48.247Z,7.13
2023-04-22T06:09:15.420Z,7.37
2023-04-22T06:11:44.331Z,7.70
2023-04-22T06:14:12.275Z,8.00
2023-04-22T06:16:40.866Z,13.93
2023-04-22T06:19:08.951Z,8.00
2023-04-22T06:21:38.067Z,8.00
2023-04-22T06:24:06.040Z,8.57
2023-04-22T06:26:33.210Z,7.83
2023-04-22T06:29:03.050Z,6.23
2023-04-22T06:31:31.240Z,8.70
2023-04-22T06:33:59.468Z,6.67
2023-04-22T06:36:30.298Z,6.80
2023-04-22T06:39:02.147Z,7.60
2023-04-22T06:41:40.920Z,38.07
2023-04-22T06:44:21.149Z,20.07
2023-04-22T06:47:06.413Z,8.50
2023-04-22T06:49:47.217Z,7.20
2023-04-22T06:52:26.781Z,7.27
2023-04-22T06:54:57.410Z,7.70
2023-04-22T06:57:24.616Z,7.67
2023-04-22T06:59:52.315Z,8.20
2023-04-22T07:02:21.077Z,6.77
2023-04-22T07:04:48.470Z,6.67
2023-04-22T07:07:16.760Z,10.87
2023-04-22T07:09:45.657Z,7.63
2023-04-22T07:12:14.915Z,7.50
2023-04-22T07:14:46.049Z,6.43
2023-04-22T07:17:15.326Z,7.37
2023-04-22T07:19:46.538Z,6.77
2023-04-22T07:22:14.121Z,10.17
2023-04-22T07:24:41.331Z,7.03
2023-04-22T07:27:08.501Z,6.80
2023-04-22T07:29:35.767Z,8.00
2023-04-22T07:32:03.143Z,6.57
2023-04-22T07:34:31.158Z,12.30
2023-04-22T07:36:58.393Z,9.57
2023-04-22T07:39:26.793Z,6.70
2023-04-22T07:41:56.390Z,10.00
2023-04-22T07:44:23.720Z,6.63
2023-04-22T07:46:50.974Z,7.23
2023-04-22T07:49:19.856Z,6.30
2023-04-22T07:51:47.418Z,8.30
2023-04-22T07:54:14.885Z,6.27
2023-04-22T07:56:42.052Z,5.60
2023-04-22T07:59:09.263Z,8.03
2023-04-22T08:01:36.551Z,6.20
2023-04-22T08:04:04.101Z,7.60
2023-04-22T08:06:35.227Z,5.43
2023-04-22T08:09:02.402Z,6.27
2023-04-22T08:11:29.574Z,5.60
2023-04-22T08:13:56.734Z,8.03
2023-04-22T08:16:24.333Z,6.33
2023-04-22T08:18:52.168Z,5.90
2023-04-22T08:21:19.331Z,6.30
2023-04-22T08:23:47.020Z,5.47
2023-04-22T08:26:16.162Z,5.90
2023-04-22T08:28:44.427Z,6.47
2023-04-22T08:31:12.836Z,5.03
2023-04-22T08:33:43.291Z,7.07
2023-04-22T08:36:12.074Z,5.47
2023-04-22T08:38:39.209Z,4.83
2023-04-22T08:41:07.227Z,5.20
2023-04-22T08:43:35.186Z,5.10
2023-04-22T08:46:02.372Z,7.03
2023-04-22T08:48:29.568Z,5.00
2023-04-22T08:50:57.594Z,4.20
2023-04-22T08:53:26.168Z,9.37
2023-04-22T08:55:56.324Z,7.03
2023-04-22T08:58:24.083Z,5.70
2023-04-22T09:00:52.525Z,5.93
2023-04-22T09:03:20.450Z,5.37
2023-04-22T09:05:48.984Z,7.80
2023-04-22T09:08:16.579Z,4.77
2023-04-22T09:10:43.783Z,10.33
2023-04-22T09:13:12.473Z,4.87
2023-04-22T09:15:39.775Z,5.60
2023-04-22T09:18:09.661Z,4.50
2023-04-22T09:20:40.932Z,5.33
2023-04-22T09:23:08.753Z,4.20
2023-04-22T09:25:35.976Z,5.10
2023-04-22T09:28:03.372Z,5.07
2023-04-22T09:30:34.639Z,5.20
2023-04-22T09:33:02.934Z,6.13
2023-04-22T09:35:34.453Z,5.00
2023-04-22T09:38:04.043Z,4.37
2023-04-22T09:40:32.230Z,4.67
2023-04-22T09:43:02.713Z,4.30
2023-04-22T09:45:33.086Z,3.90
2023-04-22T09:48:11.576Z,5.07
2023-04-22T09:50:41.103Z,4.67
2023-04-22T09:53:09.699Z,5.73
2023-04-22T09:55:40.442Z,4.80
2023-04-22T09:58:09.032Z,5.03
2023-04-22T10:00:37.932Z,3.93
2023-04-22T10:03:08.156Z,3.90
2023-04-22T10:05:37.835Z,7.20
2023-04-22T10:08:09.620Z,4.57
2023-04-22T10:10:39.912Z,4.43
2023-04-22T10:13:07.247Z,5.23
2023-04-22T10:15:36.174Z,5.23
2023-04-22T10:18:07.366Z,5.07
2023-04-22T10:20:37.408Z,4.53
2023-04-22T10:23:05.513Z,3.87
2023-04-22T10:25:34.314Z,5.00
2023-04-22T10:28:05.723Z,4.93
2023-04-22T10:30:34.170Z,5.03
2023-04-22T10:33:20.193Z,5.50
2023-04-22T10:36:06.137Z,5.47
2023-04-22T10:38:36.842Z,4.27
2023-04-22T10:41:04.081Z,3.60
2023-04-22T10:43:55.859Z,4.70
2023-04-22T10:46:37.172Z,5.10
2023-04-22T10:49:07.710Z,4.37
2023-04-22T10:51:41.013Z,3.83
2023-04-22T10:54:08.675Z,4.27
2023-04-22T10:56:37.537Z,6.00
2023-04-22T10:59:19.890Z,5.23
2023-04-22T11:01:51.170Z,4.03
2023-04-22T11:04:23.136Z,4.00
2023-04-22T11:07:09.346Z,4.10
2023-04-22T11:09:40.631Z,5.73
2023-04-22T11:12:27.247Z,4.10
2023-04-22T11:14:54.571Z,5.43
2023-04-22T11:17:23.106Z,4.10
2023-04-22T11:19:55.975Z,4.47
2023-04-22T11:22:24.869Z,6.57
2023-04-22T11:24:56.173Z,5.13
2023-04-22T11:27:26.232Z,5.90
2023-04-22T11:30:03.583Z,7.67
2023-04-22T11:32:32.440Z,4.90
2023-04-22T11:35:03.601Z,4.30
2023-04-22T11:37:30.849Z,5.57
2023-04-22T11:42:35.992Z,3.97
2023-04-22T11:45:03.358Z,4.37
2023-04-22T11:47:31.540Z,3.80
2023-04-22T11:49:59.417Z,3.50
2023-04-22T11:52:44.426Z,3.80
2023-04-22T11:55:12.623Z,3.73
2023-04-22T11:57:40.749Z,5.40
2023-04-22T12:00:08.821Z,3.63
2023-04-22T12:02:36.464Z,3.73
2023-04-22T12:05:04.002Z,3.93
2023-04-22T12:07:33.086Z,4.17
2023-04-22T12:10:02.920Z,3.93
2023-04-22T12:12:31.050Z,4.33
2023-04-22T12:14:58.263Z,3.53
2023-04-22T12:17:27.716Z,3.67
2023-04-22T12:19:57.027Z,6.80
2023-04-22T12:22:26.425Z,3.80
2023-04-22T12:24:54.826Z,5.13
2023-04-22T12:27:22.062Z,4.00
2023-04-22T12:29:53.261Z,3.80
2023-04-22T12:32:23.671Z,4.53
2023-04-22T12:34:52.400Z,4.70
2023-04-22T12:37:19.713Z,3.90
2023-04-22T12:39:47.351Z,4.43
2023-04-22T12:42:14.611Z,4.33
2023-04-22T12:44:43.736Z,4.17
2023-04-22T12:47:13.273Z,4.10
2023-04-22T12:49:41.232Z,7.70
2023-04-22T12:52:08.811Z,4.10
2023-04-22T12:54:35.975Z,4.00
2023-04-22T12:57:03.619Z,4.00
2023-04-22T12:59:30.990Z,3.97
2023-04-22T13:01:58.311Z,3.93
2023-04-22T13:04:26.828Z,3.80
2023-04-22T13:06:57.170Z,4.23
2023-04-22T13:09:25.480Z,4.23
2023-04-22T13:11:52.949Z,3.70
2023-04-22T13:14:20.176Z,4.87
2023-04-22T13:16:47.665Z,3.50
2023-04-22T13:19:14.914Z,4.10
2023-04-22T13:21:42.201Z,6.20
2023-04-22T13:24:09.421Z,3.70
2023-04-22T13:26:37.826Z,4.20
2023-04-22T13:29:10.903Z,3.90
2023-04-22T13:31:38.789Z,4.60
2023-04-22T13:34:06.816Z,3.63
2023-04-22T13:36:34.490Z,7.67
2023-04-22T13:39:01.649Z,4.90
2023-04-22T13:41:31.185Z,4.87
2023-04-22T13:43:59.609Z,4.40
2023-04-22T13:46:29.510Z,4.37
2023-04-22T13:48:58.648Z,4.47
2023-04-22T13:51:27.045Z,4.50
2023-04-22T13:53:54.210Z,6.43
2023-04-22T13:56:21.434Z,4.27
2023-04-22T13:58:48.855Z,4.37
2023-04-22T14:01:17.743Z,4.40
2023-04-22T14:03:45.419Z,3.63
2023-04-22T14:06:13.060Z,4.40
2023-04-22T14:08:40.315Z,5.60
2023-04-22T14:11:08.280Z,4.70
2023-04-22T14:13:36.620Z,4.03
2023-04-22T14:16:09.776Z,3.93
2023-04-22T14:18:37.713Z,4.60
2023-04-22T14:21:06.447Z,4.77
2023-04-22T14:23:34.263Z,5.23
2023-04-22T14:26:01.891Z,4.33
2023-04-22T14:28:29.568Z,4.53
2023-04-22T14:30:56.889Z,4.67
2023-04-22T14:33:24.893Z,4.13
2023-04-22T14:35:52.634Z,4.40
2023-04-22T14:38:20.717Z,6.30
2023-04-22T14:40:48.124Z,3.90
2023-04-22T14:43:15.902Z,3.70
2023-04-22T14:45:43.061Z,7.80
2023-04-22T14:48:11.149Z,4.00
2023-04-22T14:50:39.604Z,3.80
2023-04-22T14:53:07.325Z,3.60
2023-04-22T14:55:35.623Z,4.30
2023-04-22T14:58:03.268Z,4.00
2023-04-22T15:00:30.749Z,7.23
2023-04-22T15:02:58.375Z,5.27
2023-04-22T15:05:25.824Z,3.73
2023-04-22T15:07:53.508Z,3.77
2023-04-22T15:10:21.004Z,3.40
2023-04-22T15:12:48.419Z,3.03
2023-04-22T15:15:16.809Z,3.97
2023-04-22T15:17:45.307Z,4.40
2023-04-22T15:20:13.533Z,3.73
2023-04-22T15:22:43.672Z,4.87
2023-04-22T15:25:11.121Z,3.30
2023-04-22T15:27:38.999Z,3.43
2023-04-22T15:30:08.242Z,4.87
2023-04-22T15:32:39.304Z,4.93
2023-04-22T15:35:08.056Z,4.47
2023-04-22T15:37:36.252Z,4.33
2023-04-22T15:40:05.769Z,5.63
2023-04-22T15:42:33.096Z,3.57
2023-04-22T15:45:01.759Z,4.80
2023-04-22T15:47:29.599Z,3.40
2023-04-22T15:49:57.924Z,6.87
2023-04-22T15:52:25.146Z,4.10
2023-04-22T15:54:52.369Z,3.77
2023-04-22T15:57:19.867Z,5.77
2023-04-22T15:59:51.477Z,4.13
2023-04-22T16:02:24.072Z,4.50
2023-04-22T16:04:51.433Z,3.57
2023-04-22T16:07:19.121Z,5.90
2023-04-22T16:09:46.603Z,4.17
2023-04-22T16:12:14.768Z,4.20
2023-04-22T16:14:44.003Z,4.97
2023-04-22T16:17:11.240Z,4.00
2023-04-22T16:19:38.644Z,3.93
2023-04-22T16:22:06.193Z,4.37
2023-04-22T16:24:34.559Z,4.13
2023-04-22T16:27:02.986Z,6.37
2023-04-22T16:29:35.158Z,3.83
2023-04-22T16:32:02.427Z,3.90
2023-04-22T16:34:29.672Z,4.50
2023-04-22T16:36:56.905Z,3.90
2023-04-22T16:39:24.510Z,5.70
2023-04-22T16:41:52.083Z,3.93
2023-04-22T16:44:20.357Z,3.37
2023-04-22T16:46:47.548Z,6.53
2023-04-22T16:49:14.732Z,6.17
2023-04-22T16:51:41.962Z,3.67
2023-04-22T16:54:10.008Z,4.13
2023-04-22T16:56:37.683Z,3.80
2023-04-22T16:59:05.168Z,4.57
2023-04-22T17:01:32.461Z,5.20
2023-04-22T17:04:03.062Z,3.70
2023-04-22T17:06:31.190Z,4.27
2023-04-22T17:09:00.280Z,4.50
2023-04-22T17:11:32.269Z,4.07
2023-04-22T17:14:01.637Z,4.70
2023-04-22T17:16:28.947Z,3.40
2023-04-22T17:18:59.007Z,4.27
2023-04-22T17:21:26.972Z,8.63
2023-04-22T17:23:54.457Z,4.10
2023-04-22T17:26:22.090Z,6.20
2023-04-22T17:28:49.251Z,4.57
2023-04-22T17:31:16.445Z,4.70
2023-04-22T17:33:43.838Z,5.80
2023-04-22T17:36:11.247Z,4.47
2023-04-22T17:38:40.833Z,4.83
2023-04-22T17:41:08.205Z,4.60
2023-04-22T17:43:37.271Z,4.57
2023-04-22T17:46:06.362Z,3.53
2023-04-22T17:48:33.649Z,6.60
2023-04-22T17:51:05.069Z,6.77
2023-04-22T17:53:33.560Z,4.43
2023-04-22T17:56:01.776Z,4.23
2023-04-22T17:58:29.075Z,4.03
2023-04-22T18:00:58.514Z,4.60
2023-04-22T18:03:26.190Z,5.10
2023-04-22T18:05:53.680Z,8.77
2023-04-22T18:08:21.020Z,4.50
2023-04-22T18:10:48.230Z,6.13
2023-04-22T18:13:16.831Z,4.17
2023-04-22T18:15:47.963Z,6.57
2023-04-22T18:18:16.110Z,4.33
2023-04-22T18:20:45.522Z,5.10
2023-04-22T18:23:12.777Z,4.53
2023-04-22T18:25:40.214Z,4.47
2023-04-22T18:28:09.740Z,5.30
2023-04-22T18:30:36.957Z,7.03
2023-04-22T18:33:04.669Z,5.70
2023-04-22T18:35:35.204Z,5.13
2023-04-22T18:38:03.760Z,4.60
2023-04-22T18:40:31.025Z,4.73
2023-04-22T18:42:58.313Z,4.63
2023-04-22T18:45:25.623Z,4.80
2023-04-22T18:47:52.983Z,4.63
2023-04-22T18:50:20.958Z,4.70
2023-04-22T18:52:49.291Z,4.60
2023-04-22T18:55:16.604Z,5.00
2023-04-22T18:57:44.024Z,5.83
2023-04-22T19:00:13.246Z,4.90
2023-04-22T19:02:42.682Z,4.83
2023-04-22T19:05:10.535Z,5.90
2023-04-22T19:07:38.210Z,4.07
2023-04-22T19:10:05.763Z,6.50
2023-04-22T19:12:32.973Z,5.47
2023-04-22T19:15:01.328Z,5.83
2023-04-22T19:17:30.967Z,4.10
2023-04-22T19:19:58.322Z,4.57
2023-04-22T19:22:25.595Z,5.10
2023-04-22T19:24:52.759Z,5.20
2023-04-22T19:27:19.966Z,5.70
2023-04-22T19:29:51.411Z,5.20
2023-04-22T19:32:18.687Z,4.83
2023-04-22T19:34:47.162Z,4.37
2023-04-22T19:37:14.577Z,7.63
2023-04-22T19:39:42.034Z,4.60
2023-04-22T19:42:09.551Z,4.40
2023-04-22T19:44:37.013Z,3.83
2023-04-22T19:47:05.705Z,5.13
2023-04-22T19:49:33.480Z,4.50
2023-04-22T19:52:02.401Z,4.27
2023-04-22T19:54:30.224Z,4.30
2023-04-22T19:56:58.443Z,4.53
2023-04-22T19:59:27.813Z,4.50
2023-04-22T20:01:55.325Z,5.90
2023-04-22T20:04:22.874Z,4.70
2023-04-22T20:06:51.499Z,4.50
2023-04-22T20:09:19.641Z,4.67
2023-04-22T20:11:46.908Z,3.93
2023-04-22T20:14:15.594Z,4.83
2023-04-22T20:16:47.834Z,5.63
2023-04-22T20:19:15.331Z,5.00
2023-04-22T20:21:43.624Z,3.90
2023-04-22T20:24:19.288Z,4.43
2023-04-22T20:26:50.439Z,4.03
2023-04-22T20:29:22.236Z,4.27
2023-04-22T20:31:51.120Z,4.50
2023-04-22T20:34:20.357Z,4.80
2023-04-22T20:36:49.351Z,5.00
2023-04-22T20:39:17.170Z,4.83
2023-04-22T20:41:46.513Z,5.20
2023-04-22T20:44:14.098Z,4.70
2023-04-22T20:46:41.322Z,4.67
2023-04-22T20:49:08.460Z,4.97
2023-04-22T20:51:36.675Z,4.60
2023-04-22T20:54:06.185Z,6.00
2023-04-22T20:56:38.366Z,5.23
2023-04-22T20:59:05.530Z,4.50
2023-04-22T21:01:33.088Z,5.90
2023-04-22T21:04:01.392Z,5.00
2023-04-22T21:06:31.988Z,5.90
2023-04-22T21:08:59.150Z,5.03
2023-04-22T21:11:27.973Z,5.50
2023-04-22T21:13:55.381Z,8.53
2023-04-22T21:16:29.557Z,7.53
2023-04-22T21:19:01.146Z,6.70
2023-04-22T21:21:34.806Z,6.93
2023-04-22T21:24:02.622Z,14.27
2023-04-22T21:26:31.348Z,7.07
2023-04-22T21:28:59.121Z,6.53
2023-04-22T21:31:27.422Z,6.47
2023-04-22T21:33:55.175Z,6.27
2023-04-22T21:36:22.456Z,6.33
2023-04-22T21:38:50.206Z,6.70
2023-04-22T21:41:17.508Z,7.33
2023-04-22T21:43:45.805Z,7.93
2023-04-22T21:46:12.999Z,7.20
2023-04-22T21:48:40.332Z,6.60
2023-04-22T21:51:07.579Z,6.50
2023-04-22T21:53:34.789Z,6.50
2023-04-22T21:56:01.985Z,6.43
2023-04-22T21:58:29.159Z,7.63
2023-04-22T22:00:57.931Z,6.80
2023-04-22T22:03:25.388Z,9.50
2023-04-22T22:05:52.734Z,10.17
2023-04-22T22:08:19.872Z,9.60
2023-04-22T22:10:48.138Z,7.37
2023-04-22T22:13:15.365Z,6.90
2023-04-22T22:15:42.552Z,6.53
2023-04-22T22:18:10.196Z,6.70
2023-04-22T22:20:37.591Z,8.80
2023-04-22T22:23:05.549Z,8.23
2023-04-22T22:25:32.700Z,8.93
2023-04-22T22:27:59.884Z,7.07
2023-04-22T22:30:27.089Z,6.83
2023-04-22T22:32:54.262Z,5.90
2023-04-22T22:35:21.711Z,10.00
2023-04-22T22:37:49.022Z,5.67
2023-04-22T22:40:16.367Z,6.80
2023-04-22T22:42:43.627Z,6.77
2023-04-22T22:45:11.098Z,6.83
2023-04-22T22:47:39.429Z,6.60
2023-04-22T22:50:07.246Z,5.60
2023-04-22T22:52:34.524Z,7.23
2023-04-22T22:55:01.659Z,7.47
2023-04-22T22:57:29.167Z,7.40
2023-04-22T22:59:56.313Z,6.33
2023-04-22T23:02:23.837Z,6.53
2023-04-22T23:04:51.796Z,7.50
2023-04-22T23:07:19.079Z,7.33
2023-04-22T23:09:46.522Z,6.57
2023-04-22T23:12:14.881Z,14.07
2023-04-22T23:14:42.740Z,8.43
2023-04-22T23:17:10.716Z,6.93
2023-04-22T23:19:38.702Z,7.50
2023-04-22T23:22:06.832Z,7.40
2023-04-22T23:24:34.250Z,8.13
2023-04-22T23:27:01.671Z,6.60
2023-04-22T23:29:29.323Z,9.20
2023-04-22T23:31:58.599Z,7.77
2023-04-22T23:34:26.875Z,7.83
2023-04-22T23:36:54.433Z,7.50
2023-04-22T23:39:22.030Z,8.27
2023-04-22T23:41:49.458Z,7.73
2023-04-22T23:44:16.964Z,10.40
2023-04-22T23:46:44.287Z,7.50
2023-04-22T23:49:11.605Z,8.57
2023-04-22T23:51:38.829Z,9.03
2023-04-22T23:54:06.239Z,7.53
2023-04-22T23:56:33.514Z,8.87
2023-04-22T23:59:01.021Z,8.00
